sensor_id;sensor_type;location;lat;lon;timestamp;noise_LAeq;noise_LA_min;noise_LA_max;noise_LA01;noise_LA95
71020;Laerm;58902;51.436;5.980;2023-06-10T00:00:06;40.10;35.57;50.50;;
71020;Laerm;58902;51.436;5.980;2023-06-10T00:00:17;37.70;33.78;50.40;;
71020;Laerm;58902;51.436;5.980;2023-06-10T00:00:28;35.70;33.91;37.61;;
71020;Laerm;58902;51.436;5.980;2023-06-10T00:00:38;35.70;33.87;37.69;;
71020;Laerm;58902;51.436;5.980;2023-06-10T00:00:51;35.17;33.56;37.50;;
71020;Laerm;58902;51.436;5.980;2023-06-10T00:01:01;35.90;33.72;38.30;;
71020;Laerm;58902;51.436;5.980;2023-06-10T00:01:12;36.11;34.27;39.05;;
71020;Laerm;58902;51.436;5.980;2023-06-10T00:01:22;36.01;34.36;37.77;;
71020;Laerm;58902;51.436;5.980;2023-06-10T00:01:33;36.58;34.41;38.45;;
71020;Laerm;58902;51.436;5.980;2023-06-10T00:01:46;35.75;34.11;37.48;;
71020;Laerm;58902;51.436;5.980;2023-06-10T00:01:59;35.37;33.55;38.68;;
71020;Laerm;58902;51.436;5.980;2023-06-10T00:02:10;35.75;33.92;37.56;;
71020;Laerm;58902;51.436;5.980;2023-06-10T00:02:20;36.33;34.69;38.40;;
71020;Laerm;58902;51.436;5.980;2023-06-10T00:02:31;36.92;34.12;40.75;;
71020;Laerm;58902;51.436;5.980;2023-06-10T00:02:41;36.65;34.27;42.51;;
71020;Laerm;58902;51.436;5.980;2023-06-10T00:02:52;35.95;34.29;37.65;;
71020;Laerm;58902;51.436;5.980;2023-06-10T00:03:03;35.80;34.23;37.74;;
71020;Laerm;58902;51.436;5.980;2023-06-10T00:03:13;35.46;34.12;37.14;;
71020;Laerm;58902;51.436;5.980;2023-06-10T00:03:24;35.52;34.23;36.85;;
71020;Laerm;58902;51.436;5.980;2023-06-10T00:03:35;35.01;33.63;36.50;;
71020;Laerm;58902;51.436;5.980;2023-06-10T00:03:46;35.18;33.55;36.62;;
71020;Laerm;58902;51.436;5.980;2023-06-10T00:03:56;35.44;34.15;37.00;;
71020;Laerm;58902;51.436;5.980;2023-06-10T00:04:07;35.23;33.63;36.50;;
71020;Laerm;58902;51.436;5.980;2023-06-10T00:04:17;38.75;34.47;41.60;;
71020;Laerm;58902;51.436;5.980;2023-06-10T00:04:28;37.34;33.52;40.66;;
71020;Laerm;58902;51.436;5.980;2023-06-10T00:04:38;35.73;34.20;37.45;;
71020;Laerm;58902;51.436;5.980;2023-06-10T00:04:48;36.02;34.26;41.19;;
71020;Laerm;58902;51.436;5.980;2023-06-10T00:04:59;36.30;34.62;37.64;;
71020;Laerm;58902;51.436;5.980;2023-06-10T00:05:09;64.08;35.32;72.49;;
71020;Laerm;58902;51.436;5.980;2023-06-10T00:05:19;70.74;66.14;77.30;;
71020;Laerm;58902;51.436;5.980;2023-06-10T00:05:31;67.89;54.16;72.64;;
71020;Laerm;58902;51.436;5.980;2023-06-10T00:05:41;47.39;41.45;54.53;;
71020;Laerm;58902;51.436;5.980;2023-06-10T00:05:52;40.70;36.39;44.69;;
71020;Laerm;58902;51.436;5.980;2023-06-10T00:06:02;38.61;35.58;53.25;;
71020;Laerm;58902;51.436;5.980;2023-06-10T00:06:13;38.09;35.53;39.85;;
71020;Laerm;58902;51.436;5.980;2023-06-10T00:06:23;37.44;34.98;41.20;;
71020;Laerm;58902;51.436;5.980;2023-06-10T00:06:34;37.90;35.45;39.88;;
71020;Laerm;58902;51.436;5.980;2023-06-10T00:06:47;37.49;35.27;39.23;;
71020;Laerm;58902;51.436;5.980;2023-06-10T00:06:59;37.01;35.21;38.83;;
71020;Laerm;58902;51.436;5.980;2023-06-10T00:07:10;36.66;34.62;38.90;;
71020;Laerm;58902;51.436;5.980;2023-06-10T00:07:20;36.10;33.46;41.77;;
71020;Laerm;58902;51.436;5.980;2023-06-10T00:07:31;35.67;33.11;38.57;;
71020;Laerm;58902;51.436;5.980;2023-06-10T00:07:41;35.20;33.26;42.82;;
71020;Laerm;58902;51.436;5.980;2023-06-10T00:07:52;34.61;32.68;36.36;;
71020;Laerm;58902;51.436;5.980;2023-06-10T00:08:05;34.69;32.78;36.98;;
71020;Laerm;58902;51.436;5.980;2023-06-10T00:08:20;34.77;32.84;37.44;;
71020;Laerm;58902;51.436;5.980;2023-06-10T00:08:31;35.02;33.26;37.07;;
71020;Laerm;58902;51.436;5.980;2023-06-10T00:08:41;34.71;32.96;36.30;;
71020;Laerm;58902;51.436;5.980;2023-06-10T00:08:52;34.80;32.71;36.73;;
71020;Laerm;58902;51.436;5.980;2023-06-10T00:09:04;34.82;32.31;38.19;;
71020;Laerm;58902;51.436;5.980;2023-06-10T00:09:15;35.73;33.44;41.42;;
71020;Laerm;58902;51.436;5.980;2023-06-10T00:09:25;35.27;33.24;37.32;;
71020;Laerm;58902;51.436;5.980;2023-06-10T00:09:39;35.49;33.57;38.59;;
71020;Laerm;58902;51.436;5.980;2023-06-10T00:09:50;35.52;33.25;38.72;;
71020;Laerm;58902;51.436;5.980;2023-06-10T00:10:01;36.73;34.37;39.05;;
71020;Laerm;58902;51.436;5.980;2023-06-10T00:10:15;35.69;33.19;38.62;;
71020;Laerm;58902;51.436;5.980;2023-06-10T00:10:26;37.52;33.29;46.90;;
71020;Laerm;58902;51.436;5.980;2023-06-10T00:10:37;42.77;34.79;47.66;;
71020;Laerm;58902;51.436;5.980;2023-06-10T00:10:47;42.27;40.67;43.54;;
71020;Laerm;58902;51.436;5.980;2023-06-10T00:10:58;41.31;33.43;45.24;;
71020;Laerm;58902;51.436;5.980;2023-06-10T00:11:08;35.08;33.35;36.78;;
71020;Laerm;58902;51.436;5.980;2023-06-10T00:11:18;36.82;33.14;46.12;;
71020;Laerm;58902;51.436;5.980;2023-06-10T00:11:29;34.83;32.98;37.19;;
71020;Laerm;58902;51.436;5.980;2023-06-10T00:11:39;34.76;33.24;36.53;;
71020;Laerm;58902;51.436;5.980;2023-06-10T00:11:49;34.20;32.29;35.77;;
71020;Laerm;58902;51.436;5.980;2023-06-10T00:12:00;34.58;32.49;36.65;;
71020;Laerm;58902;51.436;5.980;2023-06-10T00:12:10;34.34;32.74;36.10;;
71020;Laerm;58902;51.436;5.980;2023-06-10T00:12:21;34.18;32.44;36.19;;
71020;Laerm;58902;51.436;5.980;2023-06-10T00:12:31;33.44;31.84;39.18;;
71020;Laerm;58902;51.436;5.980;2023-06-10T00:12:47;32.74;30.91;39.34;;
71020;Laerm;58902;51.436;5.980;2023-06-10T00:12:57;32.12;30.82;33.57;;
71020;Laerm;58902;51.436;5.980;2023-06-10T00:13:07;32.63;30.84;34.47;;
71020;Laerm;58902;51.436;5.980;2023-06-10T00:13:18;33.15;31.08;36.69;;
71020;Laerm;58902;51.436;5.980;2023-06-10T00:13:29;32.95;31.37;34.55;;
71020;Laerm;58902;51.436;5.980;2023-06-10T00:13:40;32.71;30.58;34.69;;
71020;Laerm;58902;51.436;5.980;2023-06-10T00:13:50;33.08;31.08;38.15;;
71020;Laerm;58902;51.436;5.980;2023-06-10T00:14:00;33.38;31.20;35.35;;
71020;Laerm;58902;51.436;5.980;2023-06-10T00:14:11;33.00;31.29;34.47;;
71020;Laerm;58902;51.436;5.980;2023-06-10T00:14:21;33.80;32.39;37.03;;
71020;Laerm;58902;51.436;5.980;2023-06-10T00:14:32;33.73;31.86;35.24;;
71020;Laerm;58902;51.436;5.980;2023-06-10T00:14:42;33.74;31.71;35.00;;
71020;Laerm;58902;51.436;5.980;2023-06-10T00:14:53;34.27;32.46;35.96;;
71020;Laerm;58902;51.436;5.980;2023-06-10T00:15:04;33.13;30.74;34.87;;
71020;Laerm;58902;51.436;5.980;2023-06-10T00:15:15;32.83;31.16;34.16;;
71020;Laerm;58902;51.436;5.980;2023-06-10T00:15:25;33.60;31.61;34.97;;
71020;Laerm;58902;51.436;5.980;2023-06-10T00:15:35;33.35;31.49;36.58;;
71020;Laerm;58902;51.436;5.980;2023-06-10T00:15:46;33.76;31.81;40.09;;
71020;Laerm;58902;51.436;5.980;2023-06-10T00:15:56;34.11;32.12;36.03;;
71020;Laerm;58902;51.436;5.980;2023-06-10T00:16:06;33.91;31.87;35.65;;
71020;Laerm;58902;51.436;5.980;2023-06-10T00:16:17;34.61;32.90;36.31;;
71020;Laerm;58902;51.436;5.980;2023-06-10T00:16:28;34.36;32.30;36.07;;
71020;Laerm;58902;51.436;5.980;2023-06-10T00:16:39;34.30;32.79;36.30;;
71020;Laerm;58902;51.436;5.980;2023-06-10T00:16:49;34.38;32.48;37.04;;
71020;Laerm;58902;51.436;5.980;2023-06-10T00:17:00;34.62;33.00;41.98;;
71020;Laerm;58902;51.436;5.980;2023-06-10T00:17:10;35.05;32.91;40.89;;
71020;Laerm;58902;51.436;5.980;2023-06-10T00:17:20;34.41;32.56;36.32;;
71020;Laerm;58902;51.436;5.980;2023-06-10T00:17:33;34.48;32.41;45.16;;
71020;Laerm;58902;51.436;5.980;2023-06-10T00:17:44;34.63;33.25;38.50;;
71020;Laerm;58902;51.436;5.980;2023-06-10T00:17:54;34.52;32.37;36.25;;
71020;Laerm;58902;51.436;5.980;2023-06-10T00:18:05;35.00;32.55;38.56;;
71020;Laerm;58902;51.436;5.980;2023-06-10T00:18:15;37.19;35.66;38.76;;
71020;Laerm;58902;51.436;5.980;2023-06-10T00:18:26;36.86;35.29;42.32;;
71020;Laerm;58902;51.436;5.980;2023-06-10T00:18:37;36.43;34.91;40.21;;
71020;Laerm;58902;51.436;5.980;2023-06-10T00:18:49;39.21;34.88;42.73;;
71020;Laerm;58902;51.436;5.980;2023-06-10T00:19:01;37.68;34.51;42.51;;
71020;Laerm;58902;51.436;5.980;2023-06-10T00:19:12;36.31;34.76;38.01;;
71020;Laerm;58902;51.436;5.980;2023-06-10T00:19:26;35.87;34.08;38.40;;
71020;Laerm;58902;51.436;5.980;2023-06-10T00:19:40;71.30;36.34;77.45;;
71020;Laerm;58902;51.436;5.980;2023-06-10T00:19:51;67.28;47.01;74.56;;
71020;Laerm;58902;51.436;5.980;2023-06-10T00:20:03;44.54;40.93;48.79;;
71020;Laerm;58902;51.436;5.980;2023-06-10T00:20:19;39.93;36.84;42.27;;
71020;Laerm;58902;51.436;5.980;2023-06-10T00:20:31;39.12;34.69;43.78;;
71020;Laerm;58902;51.436;5.980;2023-06-10T00:20:42;38.62;35.00;42.13;;
71020;Laerm;58902;51.436;5.980;2023-06-10T00:20:53;36.18;33.93;39.16;;
71020;Laerm;58902;51.436;5.980;2023-06-10T00:21:05;35.41;33.08;38.27;;
71020;Laerm;58902;51.436;5.980;2023-06-10T00:21:15;35.37;33.47;39.01;;
71020;Laerm;58902;51.436;5.980;2023-06-10T00:21:29;35.24;32.70;42.67;;
71020;Laerm;58902;51.436;5.980;2023-06-10T00:21:40;33.85;31.97;37.32;;
71020;Laerm;58902;51.436;5.980;2023-06-10T00:21:51;33.21;31.19;35.14;;
71020;Laerm;58902;51.436;5.980;2023-06-10T00:22:02;33.25;31.32;34.93;;
71020;Laerm;58902;51.436;5.980;2023-06-10T00:22:13;33.50;31.80;35.43;;
71020;Laerm;58902;51.436;5.980;2023-06-10T00:22:24;35.90;32.32;40.45;;
71020;Laerm;58902;51.436;5.980;2023-06-10T00:22:39;35.07;32.28;40.12;;
71020;Laerm;58902;51.436;5.980;2023-06-10T00:22:51;33.51;31.59;35.62;;
71020;Laerm;58902;51.436;5.980;2023-06-10T00:23:02;34.13;31.91;36.31;;
71020;Laerm;58902;51.436;5.980;2023-06-10T00:23:12;34.85;33.04;36.55;;
71020;Laerm;58902;51.436;5.980;2023-06-10T00:23:23;34.98;33.49;37.52;;
71020;Laerm;58902;51.436;5.980;2023-06-10T00:23:35;34.90;32.52;36.26;;
71020;Laerm;58902;51.436;5.980;2023-06-10T00:23:48;35.26;33.36;36.82;;
71020;Laerm;58902;51.436;5.980;2023-06-10T00:23:58;35.30;33.63;38.98;;
71020;Laerm;58902;51.436;5.980;2023-06-10T00:24:13;35.80;33.52;38.48;;
71020;Laerm;58902;51.436;5.980;2023-06-10T00:24:23;37.24;34.43;42.81;;
71020;Laerm;58902;51.436;5.980;2023-06-10T00:24:33;36.01;34.33;40.87;;
71020;Laerm;58902;51.436;5.980;2023-06-10T00:24:45;36.36;33.99;47.23;;
71020;Laerm;58902;51.436;5.980;2023-06-10T00:24:55;35.95;33.15;38.26;;
71020;Laerm;58902;51.436;5.980;2023-06-10T00:25:09;35.61;33.61;38.14;;
71020;Laerm;58902;51.436;5.980;2023-06-10T00:25:20;35.27;33.17;36.95;;
71020;Laerm;58902;51.436;5.980;2023-06-10T00:25:31;35.00;33.26;36.46;;
71020;Laerm;58902;51.436;5.980;2023-06-10T00:25:41;34.92;33.47;36.67;;
71020;Laerm;58902;51.436;5.980;2023-06-10T00:25:51;35.37;33.45;37.17;;
71020;Laerm;58902;51.436;5.980;2023-06-10T00:26:02;35.98;33.90;37.82;;
71020;Laerm;58902;51.436;5.980;2023-06-10T00:26:12;36.52;33.79;38.94;;
71020;Laerm;58902;51.436;5.980;2023-06-10T00:26:23;36.59;34.04;39.21;;
71020;Laerm;58902;51.436;5.980;2023-06-10T00:26:33;35.73;33.58;38.43;;
71020;Laerm;58902;51.436;5.980;2023-06-10T00:26:43;35.50;33.62;37.35;;
71020;Laerm;58902;51.436;5.980;2023-06-10T00:26:54;35.26;33.46;37.08;;
71020;Laerm;58902;51.436;5.980;2023-06-10T00:27:04;35.36;33.46;38.33;;
71020;Laerm;58902;51.436;5.980;2023-06-10T00:27:17;35.34;33.64;37.21;;
71020;Laerm;58902;51.436;5.980;2023-06-10T00:27:27;35.39;33.91;37.10;;
71020;Laerm;58902;51.436;5.980;2023-06-10T00:27:41;35.04;32.98;36.74;;
71020;Laerm;58902;51.436;5.980;2023-06-10T00:27:51;34.91;33.25;37.26;;
71020;Laerm;58902;51.436;5.980;2023-06-10T00:28:02;34.92;33.08;37.00;;
71020;Laerm;58902;51.436;5.980;2023-06-10T00:28:12;34.50;32.65;36.18;;
71020;Laerm;58902;51.436;5.980;2023-06-10T00:28:23;34.38;32.19;36.12;;
71020;Laerm;58902;51.436;5.980;2023-06-10T00:28:33;34.56;32.80;36.10;;
71020;Laerm;58902;51.436;5.980;2023-06-10T00:28:44;34.60;32.91;38.13;;
71020;Laerm;58902;51.436;5.980;2023-06-10T00:28:55;34.46;32.62;36.02;;
71020;Laerm;58902;51.436;5.980;2023-06-10T00:29:05;34.30;32.59;35.99;;
71020;Laerm;58902;51.436;5.980;2023-06-10T00:29:16;34.17;32.25;36.21;;
71020;Laerm;58902;51.436;5.980;2023-06-10T00:29:26;34.01;32.34;35.89;;
71020;Laerm;58902;51.436;5.980;2023-06-10T00:29:36;33.93;32.06;35.70;;
71020;Laerm;58902;51.436;5.980;2023-06-10T00:29:47;34.09;32.08;36.58;;
71020;Laerm;58902;51.436;5.980;2023-06-10T00:29:57;34.26;32.63;36.20;;
71020;Laerm;58902;51.436;5.980;2023-06-10T00:30:08;35.78;32.88;43.72;;
71020;Laerm;58902;51.436;5.980;2023-06-10T00:30:18;36.92;33.37;45.13;;
71020;Laerm;58902;51.436;5.980;2023-06-10T00:30:28;34.49;32.44;36.46;;
71020;Laerm;58902;51.436;5.980;2023-06-10T00:30:39;34.24;32.55;35.76;;
71020;Laerm;58902;51.436;5.980;2023-06-10T00:30:49;34.25;32.49;35.77;;
71020;Laerm;58902;51.436;5.980;2023-06-10T00:31:00;32.67;30.49;35.29;;
71020;Laerm;58902;51.436;5.980;2023-06-10T00:31:10;37.77;30.41;52.04;;
71020;Laerm;58902;51.436;5.980;2023-06-10T00:31:20;32.26;30.60;33.97;;
71020;Laerm;58902;51.436;5.980;2023-06-10T00:31:31;32.61;30.24;45.85;;
71020;Laerm;58902;51.436;5.980;2023-06-10T00:31:41;32.11;30.28;34.30;;
71020;Laerm;58902;51.436;5.980;2023-06-10T00:31:51;32.31;30.57;38.23;;
71020;Laerm;58902;51.436;5.980;2023-06-10T00:32:04;31.27;29.67;34.19;;
71020;Laerm;58902;51.436;5.980;2023-06-10T00:32:14;31.23;29.45;32.67;;
71020;Laerm;58902;51.436;5.980;2023-06-10T00:32:24;31.05;29.82;32.78;;
71020;Laerm;58902;51.436;5.980;2023-06-10T00:32:35;31.17;29.83;32.69;;
71020;Laerm;58902;51.436;5.980;2023-06-10T00:32:45;31.24;29.49;33.03;;
71020;Laerm;58902;51.436;5.980;2023-06-10T00:32:56;30.83;29.12;32.38;;
71020;Laerm;58902;51.436;5.980;2023-06-10T00:33:06;31.54;29.83;33.30;;
71020;Laerm;58902;51.436;5.980;2023-06-10T00:33:16;31.74;30.46;33.28;;
71020;Laerm;58902;51.436;5.980;2023-06-10T00:33:27;31.46;29.83;32.94;;
71020;Laerm;58902;51.436;5.980;2023-06-10T00:33:38;31.76;30.38;33.77;;
71020;Laerm;58902;51.436;5.980;2023-06-10T00:33:48;32.03;30.58;33.59;;
71020;Laerm;58902;51.436;5.980;2023-06-10T00:33:59;31.98;30.11;35.27;;
71020;Laerm;58902;51.436;5.980;2023-06-10T00:34:09;32.66;31.17;34.56;;
71020;Laerm;58902;51.436;5.980;2023-06-10T00:34:19;32.88;31.49;35.05;;
71020;Laerm;58902;51.436;5.980;2023-06-10T00:34:31;33.05;30.65;35.68;;
71020;Laerm;58902;51.436;5.980;2023-06-10T00:34:42;34.52;32.60;36.26;;
71020;Laerm;58902;51.436;5.980;2023-06-10T00:34:52;35.52;33.11;37.70;;
71020;Laerm;58902;51.436;5.980;2023-06-10T00:35:05;35.91;32.95;39.95;;
71020;Laerm;58902;51.436;5.980;2023-06-10T00:35:16;33.82;31.71;36.23;;
71020;Laerm;58902;51.436;5.980;2023-06-10T00:35:26;33.44;30.87;36.51;;
71020;Laerm;58902;51.436;5.980;2023-06-10T00:35:37;36.20;31.65;38.52;;
71020;Laerm;58902;51.436;5.980;2023-06-10T00:35:47;36.92;35.29;38.35;;
71020;Laerm;58902;51.436;5.980;2023-06-10T00:35:57;35.75;33.54;40.09;;
71020;Laerm;58902;51.436;5.980;2023-06-10T00:36:08;34.38;32.95;36.04;;
71020;Laerm;58902;51.436;5.980;2023-06-10T00:36:19;33.88;32.45;35.78;;
71020;Laerm;58902;51.436;5.980;2023-06-10T00:36:29;34.14;30.95;38.93;;
71020;Laerm;58902;51.436;5.980;2023-06-10T00:36:40;34.60;31.30;38.49;;
71020;Laerm;58902;51.436;5.980;2023-06-10T00:36:50;34.36;31.63;37.10;;
71020;Laerm;58902;51.436;5.980;2023-06-10T00:37:01;34.02;31.21;43.15;;
71020;Laerm;58902;51.436;5.980;2023-06-10T00:37:11;31.79;30.47;34.34;;
71020;Laerm;58902;51.436;5.980;2023-06-10T00:37:22;31.78;30.37;35.05;;
71020;Laerm;58902;51.436;5.980;2023-06-10T00:37:32;32.00;30.23;34.28;;
71020;Laerm;58902;51.436;5.980;2023-06-10T00:37:45;31.95;29.97;36.19;;
71020;Laerm;58902;51.436;5.980;2023-06-10T00:37:55;31.50;30.26;32.83;;
71020;Laerm;58902;51.436;5.980;2023-06-10T00:38:05;31.81;30.03;34.07;;
71020;Laerm;58902;51.436;5.980;2023-06-10T00:38:16;32.04;29.71;34.87;;
71020;Laerm;58902;51.436;5.980;2023-06-10T00:38:26;32.72;30.91;34.51;;
71020;Laerm;58902;51.436;5.980;2023-06-10T00:38:36;32.71;31.16;34.28;;
71020;Laerm;58902;51.436;5.980;2023-06-10T00:38:47;32.66;31.28;34.09;;
71020;Laerm;58902;51.436;5.980;2023-06-10T00:38:57;32.53;30.82;34.64;;
71020;Laerm;58902;51.436;5.980;2023-06-10T00:39:08;32.55;31.22;34.25;;
71020;Laerm;58902;51.436;5.980;2023-06-10T00:39:18;32.93;31.45;35.86;;
71020;Laerm;58902;51.436;5.980;2023-06-10T00:39:29;33.52;31.45;45.59;;
71020;Laerm;58902;51.436;5.980;2023-06-10T00:39:39;32.93;31.08;36.05;;
71020;Laerm;58902;51.436;5.980;2023-06-10T00:39:49;32.84;30.71;35.27;;
71020;Laerm;58902;51.436;5.980;2023-06-10T00:40:00;32.81;31.05;34.84;;
71020;Laerm;58902;51.436;5.980;2023-06-10T00:40:11;32.80;31.40;35.50;;
71020;Laerm;58902;51.436;5.980;2023-06-10T00:40:21;33.03;31.16;35.35;;
71020;Laerm;58902;51.436;5.980;2023-06-10T00:40:33;32.92;30.97;35.82;;
71020;Laerm;58902;51.436;5.980;2023-06-10T00:40:43;33.15;31.46;35.41;;
71020;Laerm;58902;51.436;5.980;2023-06-10T00:40:54;33.27;31.40;35.25;;
71020;Laerm;58902;51.436;5.980;2023-06-10T00:41:04;33.05;31.43;34.61;;
71020;Laerm;58902;51.436;5.980;2023-06-10T00:41:14;33.47;31.64;36.01;;
71020;Laerm;58902;51.436;5.980;2023-06-10T00:41:25;33.35;31.53;34.84;;
71020;Laerm;58902;51.436;5.980;2023-06-10T00:41:38;33.74;31.48;38.98;;
71020;Laerm;58902;51.436;5.980;2023-06-10T00:41:48;33.36;31.66;35.56;;
71020;Laerm;58902;51.436;5.980;2023-06-10T00:41:59;33.00;31.46;34.91;;
71020;Laerm;58902;51.436;5.980;2023-06-10T00:42:10;33.32;31.04;37.48;;
71020;Laerm;58902;51.436;5.980;2023-06-10T00:42:21;33.16;31.60;35.52;;
71020;Laerm;58902;51.436;5.980;2023-06-10T00:42:34;33.60;31.48;38.75;;
71020;Laerm;58902;51.436;5.980;2023-06-10T00:42:44;33.59;31.82;35.85;;
71020;Laerm;58902;51.436;5.980;2023-06-10T00:42:55;34.21;32.17;36.67;;
71020;Laerm;58902;51.436;5.980;2023-06-10T00:43:05;33.20;31.61;37.58;;
71020;Laerm;58902;51.436;5.980;2023-06-10T00:43:15;32.86;30.91;37.13;;
71020;Laerm;58902;51.436;5.980;2023-06-10T00:43:26;33.52;31.20;35.90;;
71020;Laerm;58902;51.436;5.980;2023-06-10T00:43:36;38.73;32.85;42.84;;
71020;Laerm;58902;51.436;5.980;2023-06-10T00:43:46;36.15;32.29;42.56;;
71020;Laerm;58902;51.436;5.980;2023-06-10T00:43:57;32.90;31.22;34.35;;
71020;Laerm;58902;51.436;5.980;2023-06-10T00:44:07;32.83;31.40;35.39;;
71020;Laerm;58902;51.436;5.980;2023-06-10T00:44:18;33.22;30.81;35.90;;
71020;Laerm;58902;51.436;5.980;2023-06-10T00:44:28;33.14;31.05;34.79;;
71020;Laerm;58902;51.436;5.980;2023-06-10T00:44:38;33.10;31.61;34.74;;
71020;Laerm;58902;51.436;5.980;2023-06-10T00:44:49;32.96;31.05;34.73;;
71020;Laerm;58902;51.436;5.980;2023-06-10T00:44:59;32.98;31.77;34.35;;
71020;Laerm;58902;51.436;5.980;2023-06-10T00:45:09;32.96;31.40;34.52;;
71020;Laerm;58902;51.436;5.980;2023-06-10T00:45:20;32.83;30.89;34.86;;
71020;Laerm;58902;51.436;5.980;2023-06-10T00:45:31;32.04;30.53;34.18;;
71020;Laerm;58902;51.436;5.980;2023-06-10T00:45:41;32.94;31.01;35.60;;
71020;Laerm;58902;51.436;5.980;2023-06-10T00:45:52;33.57;31.10;37.44;;
71020;Laerm;58902;51.436;5.980;2023-06-10T00:46:02;36.71;31.66;47.09;;
71020;Laerm;58902;51.436;5.980;2023-06-10T00:46:12;38.17;31.46;45.45;;
71020;Laerm;58902;51.436;5.980;2023-06-10T00:46:23;44.16;42.34;45.01;;
71020;Laerm;58902;51.436;5.980;2023-06-10T00:46:35;44.75;43.92;45.51;;
71020;Laerm;58902;51.436;5.980;2023-06-10T00:46:47;40.00;31.27;45.49;;
71020;Laerm;58902;51.436;5.980;2023-06-10T00:47:00;32.89;31.13;41.34;;
71020;Laerm;58902;51.436;5.980;2023-06-10T00:47:10;32.71;31.21;34.24;;
71020;Laerm;58902;51.436;5.980;2023-06-10T00:47:21;34.03;32.19;39.56;;
71020;Laerm;58902;51.436;5.980;2023-06-10T00:47:31;33.23;31.24;34.83;;
71020;Laerm;58902;51.436;5.980;2023-06-10T00:47:42;32.97;31.15;34.90;;
71020;Laerm;58902;51.436;5.980;2023-06-10T00:47:52;33.17;31.55;35.56;;
71020;Laerm;58902;51.436;5.980;2023-06-10T00:48:03;33.06;31.17;40.92;;
71020;Laerm;58902;51.436;5.980;2023-06-10T00:48:13;32.99;31.26;36.18;;
71020;Laerm;58902;51.436;5.980;2023-06-10T00:48:24;32.88;31.20;34.15;;
71020;Laerm;58902;51.436;5.980;2023-06-10T00:48:34;33.43;31.41;36.89;;
71020;Laerm;58902;51.436;5.980;2023-06-10T00:48:45;33.35;31.76;34.97;;
71020;Laerm;58902;51.436;5.980;2023-06-10T00:48:56;33.35;31.72;35.18;;
71020;Laerm;58902;51.436;5.980;2023-06-10T00:49:07;33.25;31.72;36.03;;
71020;Laerm;58902;51.436;5.980;2023-06-10T00:49:18;33.20;31.63;35.91;;
71020;Laerm;58902;51.436;5.980;2023-06-10T00:49:28;34.10;31.81;37.72;;
71020;Laerm;58902;51.436;5.980;2023-06-10T00:49:39;33.88;32.09;35.33;;
71020;Laerm;58902;51.436;5.980;2023-06-10T00:49:49;33.95;32.05;36.03;;
71020;Laerm;58902;51.436;5.980;2023-06-10T00:50:01;34.21;31.68;38.52;;
71020;Laerm;58902;51.436;5.980;2023-06-10T00:50:12;33.41;31.56;35.62;;
71020;Laerm;58902;51.436;5.980;2023-06-10T00:50:22;33.31;31.43;35.07;;
71020;Laerm;58902;51.436;5.980;2023-06-10T00:50:33;33.17;31.72;39.41;;
71020;Laerm;58902;51.436;5.980;2023-06-10T00:50:47;33.81;31.12;50.20;;
71020;Laerm;58902;51.436;5.980;2023-06-10T00:50:58;33.33;31.63;35.51;;
71020;Laerm;58902;51.436;5.980;2023-06-10T00:51:09;34.28;32.78;36.17;;
71020;Laerm;58902;51.436;5.980;2023-06-10T00:51:20;34.22;32.48;35.64;;
71020;Laerm;58902;51.436;5.980;2023-06-10T00:51:31;33.77;31.83;35.64;;
71020;Laerm;58902;51.436;5.980;2023-06-10T00:51:41;33.09;31.51;34.81;;
71020;Laerm;58902;51.436;5.980;2023-06-10T00:51:52;33.14;31.21;34.95;;
71020;Laerm;58902;51.436;5.980;2023-06-10T00:52:03;36.92;32.01;39.80;;
71020;Laerm;58902;51.436;5.980;2023-06-10T00:52:14;38.61;37.48;39.82;;
71020;Laerm;58902;51.436;5.980;2023-06-10T00:52:27;38.04;32.67;41.15;;
71020;Laerm;58902;51.436;5.980;2023-06-10T00:52:37;33.89;32.15;35.27;;
71020;Laerm;58902;51.436;5.980;2023-06-10T00:52:48;34.79;32.92;36.94;;
71020;Laerm;58902;51.436;5.980;2023-06-10T00:52:58;36.01;33.38;41.60;;
71020;Laerm;58902;51.436;5.980;2023-06-10T00:53:09;35.09;32.40;43.06;;
71020;Laerm;58902;51.436;5.980;2023-06-10T00:53:21;34.52;31.34;38.36;;
71020;Laerm;58902;51.436;5.980;2023-06-10T00:53:32;33.49;31.18;41.77;;
71020;Laerm;58902;51.436;5.980;2023-06-10T00:53:43;32.76;30.90;34.42;;
71020;Laerm;58902;51.436;5.980;2023-06-10T00:53:54;32.51;31.01;34.12;;
71020;Laerm;58902;51.436;5.980;2023-06-10T00:54:05;32.59;31.16;34.29;;
71020;Laerm;58902;51.436;5.980;2023-06-10T00:54:16;32.55;31.07;34.43;;
71020;Laerm;58902;51.436;5.980;2023-06-10T00:54:26;32.67;30.81;34.60;;
71020;Laerm;58902;51.436;5.980;2023-06-10T00:54:37;32.83;31.15;35.05;;
71020;Laerm;58902;51.436;5.980;2023-06-10T00:54:48;32.74;30.57;35.17;;
71020;Laerm;58902;51.436;5.980;2023-06-10T00:54:59;32.69;31.13;35.29;;
71020;Laerm;58902;51.436;5.980;2023-06-10T00:55:09;32.49;30.80;34.36;;
71020;Laerm;58902;51.436;5.980;2023-06-10T00:55:20;32.61;30.70;34.48;;
71020;Laerm;58902;51.436;5.980;2023-06-10T00:55:31;32.89;30.98;35.88;;
71020;Laerm;58902;51.436;5.980;2023-06-10T00:55:42;34.70;31.34;42.98;;
71020;Laerm;58902;51.436;5.980;2023-06-10T00:55:53;35.42;31.02;44.97;;
71020;Laerm;58902;51.436;5.980;2023-06-10T00:56:03;32.49;30.30;35.11;;
71020;Laerm;58902;51.436;5.980;2023-06-10T00:56:14;31.98;30.12;34.79;;
71020;Laerm;58902;51.436;5.980;2023-06-10T00:56:25;31.93;29.75;34.61;;
71020;Laerm;58902;51.436;5.980;2023-06-10T00:56:36;32.25;30.30;37.75;;
71020;Laerm;58902;51.436;5.980;2023-06-10T00:56:47;33.53;30.47;43.11;;
71020;Laerm;58902;51.436;5.980;2023-06-10T00:57:00;38.30;35.23;42.44;;
71020;Laerm;58902;51.436;5.980;2023-06-10T00:57:10;32.87;30.69;40.77;;
71020;Laerm;58902;51.436;5.980;2023-06-10T00:57:23;32.55;31.23;34.59;;
71020;Laerm;58902;51.436;5.980;2023-06-10T00:57:33;33.50;31.36;36.54;;
71020;Laerm;58902;51.436;5.980;2023-06-10T00:57:45;67.15;33.82;75.59;;
71020;Laerm;58902;51.436;5.980;2023-06-10T00:57:56;71.54;65.55;75.71;;
71020;Laerm;58902;51.436;5.980;2023-06-10T00:58:06;67.28;46.35;76.54;;
71020;Laerm;58902;51.436;5.980;2023-06-10T00:58:17;45.33;41.00;49.10;;
71020;Laerm;58902;51.436;5.980;2023-06-10T00:58:27;40.09;37.08;45.35;;
71020;Laerm;58902;51.436;5.980;2023-06-10T00:58:38;37.43;35.12;41.92;;
71020;Laerm;58902;51.436;5.980;2023-06-10T00:58:48;38.08;35.56;40.65;;
71020;Laerm;58902;51.436;5.980;2023-06-10T00:58:58;37.96;35.18;41.31;;
71020;Laerm;58902;51.436;5.980;2023-06-10T00:59:09;36.13;34.47;38.85;;
71020;Laerm;58902;51.436;5.980;2023-06-10T00:59:19;36.19;33.00;40.37;;
71020;Laerm;58902;51.436;5.980;2023-06-10T00:59:30;33.66;31.94;35.22;;
71020;Laerm;58902;51.436;5.980;2023-06-10T00:59:41;33.04;31.02;37.40;;
71020;Laerm;58902;51.436;5.980;2023-06-10T00:59:53;35.48;31.63;40.09;;
71020;Laerm;58902;51.436;5.980;2023-06-10T01:00:04;39.93;37.23;52.78;;
71020;Laerm;58902;51.436;5.980;2023-06-10T01:00:18;40.78;32.87;52.79;;
71020;Laerm;58902;51.436;5.980;2023-06-10T01:00:29;34.44;33.19;35.78;;
71020;Laerm;58902;51.436;5.980;2023-06-10T01:00:39;33.94;32.11;35.66;;
71020;Laerm;58902;51.436;5.980;2023-06-10T01:00:49;33.14;32.00;34.42;;
71020;Laerm;58902;51.436;5.980;2023-06-10T01:01:00;33.08;31.65;34.71;;